Time;durP1;ratioP1;P1;durP2;ratioP2;P2;SDS_P1;SDS_P2;PMS_P1;PMS_P2;Temp;Humidity;BMP_temperature;BMP_pressure;BME280_temperature;BME280_humidity;BME280_pressure;Samples;Min_cycle;Max_cycle;Signal;HPM_P1;HPM_P2
2022/01/07 00:01:09;;;;;;;6.07;4.80;;;;;;;;;;5042175;28;20530;-35
2022/01/07 00:03:34;;;;;;;5.78;4.65;;;;;;;;;;5040464;28;20098;-33
2022/01/07 00:06:00;;;;;;;5.95;4.70;;;;;;;;;;5042037;28;20116;-32
2022/01/07 00:08:26;;;;;;;8.65;4.88;;;;;;;;;;5041296;28;20049;-31
2022/01/07 00:10:52;;;;;;;5.88;4.47;;;;;;;;;;5042193;28;20140;-29
2022/01/07 00:13:17;;;;;;;6.05;4.65;;;;;;;;;;5045252;28;20111;-31
2022/01/07 00:15:44;;;;;;;5.72;4.47;;;;;;;;;;5046062;28;20028;-29
2022/01/07 00:18:09;;;;;;;5.35;4.38;;;;;;;;;;5045881;28;20033;-32
2022/01/07 00:20:35;;;;;;;6.68;4.07;;;;;;;;;;5045109;28;20044;-31
2022/01/07 00:23:00;;;;;;;5.68;4.85;;;;;;;;;;5045669;28;20028;-32
2022/01/07 00:25:26;;;;;;;5.50;4.50;;;;;;;;;;5044640;28;20506;-33
2022/01/07 00:27:52;;;;;;;5.32;4.43;;;;;;;;;;5027178;28;20029;-32
2022/01/07 00:30:18;;;;;;;5.15;4.18;;;;;;;;;;5024418;28;20079;-32
2022/01/07 00:32:43;;;;;;;5.28;4.25;;;;;;;;;;5025692;28;20034;-32
2022/01/07 00:35:09;;;;;;;6.10;4.50;;;;;;;;;;5025045;28;20122;-36
2022/01/07 00:37:35;;;;;;;6.32;4.10;;;;;;;;;;5025120;28;20819;-31
2022/01/07 00:40:01;;;;;;;5.43;4.50;;;;;;;;;;5025463;28;20029;-29
2022/01/07 00:42:26;;;;;;;5.18;4.40;;;;;;;;;;5025088;28;20033;-31
2022/01/07 00:44:52;;;;;;;4.20;3.80;;;;;;;;;;5025447;28;20025;-33
2022/01/07 00:47:17;;;;;;;4.82;4.30;;;;;;;;;;5025239;28;20033;-29
2022/01/07 00:49:43;;;;;;;6.07;4.30;;;;;;;;;;5024849;28;20029;-35
2022/01/07 00:52:09;;;;;;;5.30;4.18;;;;;;;;;;5024884;28;20021;-34
2022/01/07 00:54:34;;;;;;;3.97;3.65;;;;;;;;;;5024789;28;20033;-33
2022/01/07 00:57:00;;;;;;;4.70;3.85;;;;;;;;;;5025185;28;20026;-33
2022/01/07 00:59:25;;;;;;;5.35;4.18;;;;;;;;;;5024970;28;20029;-32
2022/01/07 01:01:51;;;;;;;5.10;3.80;;;;;;;;;;5034929;28;20036;-33
2022/01/07 01:04:18;;;;;;;4.40;3.75;;;;;;;;;;5044621;28;20024;-32
2022/01/07 01:06:45;;;;;;;4.78;3.80;;;;;;;;;;5043622;28;20025;-35
2022/01/07 01:09:11;;;;;;;4.97;3.90;;;;;;;;;;5044363;28;20144;-33
2022/01/07 01:11:36;;;;;;;4.35;3.67;;;;;;;;;;5026993;28;20559;-30
2022/01/07 01:14:02;;;;;;;4.50;3.28;;;;;;;;;;5025015;28;20033;-30
2022/01/07 01:16:27;;;;;;;4.45;3.50;;;;;;;;;;5024636;28;20035;-32
2022/01/07 01:18:53;;;;;;;3.72;3.28;;;;;;;;;;5038854;28;20095;-35
2022/01/07 01:21:18;;;;;;;4.60;3.60;;;;;;;;;;5044418;28;20106;-29
2022/01/07 01:23:45;;;;;;;5.03;4.10;;;;;;;;;;5043590;28;20519;-34
2022/01/07 01:26:18;;;;;;;8.35;4.03;;;;;;;;;;5044244;28;20128;-33
2022/01/07 01:28:44;;;;;;;4.28;3.65;;;;;;;;;;5044538;28;20192;-29
2022/01/07 01:31:09;;;;;;;4.10;3.45;;;;;;;;;;5044452;28;20041;-29
2022/01/07 01:33:35;;;;;;;4.28;3.67;;;;;;;;;;5043988;28;20029;-33
2022/01/07 01:36:00;;;;;;;4.30;3.72;;;;;;;;;;5044031;28;20033;-30
2022/01/07 01:38:27;;;;;;;4.90;4.03;;;;;;;;;;5043819;28;20044;-32
2022/01/07 01:40:53;;;;;;;5.97;3.60;;;;;;;;;;5043984;28;20036;-34
2022/01/07 01:43:19;;;;;;;4.55;3.80;;;;;;;;;;5044068;28;20418;-33
2022/01/07 01:45:44;;;;;;;5.10;3.92;;;;;;;;;;5044019;28;20037;-29
2022/01/07 01:48:10;;;;;;;4.85;4.03;;;;;;;;;;5043940;28;20087;-31
2022/01/07 01:50:35;;;;;;;4.50;3.63;;;;;;;;;;5043408;28;20102;-29
2022/01/07 01:53:01;;;;;;;4.63;3.67;;;;;;;;;;5044451;28;20033;-31
2022/01/07 01:55:27;;;;;;;4.15;3.63;;;;;;;;;;5043614;28;20149;-30
2022/01/07 01:57:53;;;;;;;5.15;4.10;;;;;;;;;;5043928;28;20033;-32
2022/01/07 02:00:20;;;;;;;4.10;3.70;;;;;;;;;;5041916;28;20795;-33
2022/01/07 02:02:45;;;;;;;4.57;3.88;;;;;;;;;;5043430;28;20048;-31
2022/01/07 02:05:12;;;;;;;4.30;3.70;;;;;;;;;;5041773;28;20491;-33
2022/01/07 02:07:39;;;;;;;6.65;4.00;;;;;;;;;;5043389;28;20111;-30
2022/01/07 02:10:06;;;;;;;4.97;3.63;;;;;;;;;;5043529;28;20652;-33
2022/01/07 02:12:32;;;;;;;5.03;4.00;;;;;;;;;;5042871;28;20032;-31
2022/01/07 02:14:57;;;;;;;4.75;3.88;;;;;;;;;;5043469;28;20044;-31
2022/01/07 02:17:23;;;;;;;4.93;3.80;;;;;;;;;;5043436;28;20418;-29
2022/01/07 02:19:49;;;;;;;4.80;3.75;;;;;;;;;;5031245;28;20071;-32
2022/01/07 02:22:17;;;;;;;5.05;3.65;;;;;;;;;;5022813;28;20488;-28
2022/01/07 02:24:43;;;;;;;5.63;4.00;;;;;;;;;;5021877;28;20550;-33
2022/01/07 02:27:09;;;;;;;4.65;4.00;;;;;;;;;;5022969;28;20029;-29
2022/01/07 02:29:36;;;;;;;6.80;3.80;;;;;;;;;;5005258;28;20044;-34
2022/01/07 02:32:01;;;;;;;9.10;4.18;;;;;;;;;;5023266;28;20055;-32
2022/01/07 02:34:27;;;;;;;10.40;4.10;;;;;;;;;;5022270;28;20479;-32
2022/01/07 02:36:52;;;;;;;7.15;3.65;;;;;;;;;;5022818;28;20410;-36
2022/01/07 02:39:18;;;;;;;5.05;4.03;;;;;;;;;;5023169;28;20029;-34
2022/01/07 02:41:43;;;;;;;5.07;4.00;;;;;;;;;;5022884;28;20468;-30
2022/01/07 02:44:09;;;;;;;9.95;4.68;;;;;;;;;;5023248;28;20759;-30
2022/01/07 02:46:35;;;;;;;7.40;4.18;;;;;;;;;;5022964;28;20072;-30
2022/01/07 02:49:10;;;;;;;6.22;4.15;;;;;;;;;;5023377;28;20087;-30
2022/01/07 02:51:36;;;;;;;8.30;4.25;;;;;;;;;;5022548;28;20529;-29
2022/01/07 02:54:01;;;;;;;5.45;3.70;;;;;;;;;;5021444;28;20029;-32
2022/01/07 02:56:26;;;;;;;4.55;3.65;;;;;;;;;;5022740;28;20029;-34
2022/01/07 02:58:52;;;;;;;5.53;4.20;;;;;;;;;;5022759;28;20108;-32
2022/01/07 03:01:18;;;;;;;4.43;3.75;;;;;;;;;;5023155;28;20032;-30
2022/01/07 03:03:43;;;;;;;7.30;3.67;;;;;;;;;;5022929;28;20476;-33
2022/01/07 03:06:09;;;;;;;5.15;4.00;;;;;;;;;;5022557;28;20032;-32
2022/01/07 03:08:34;;;;;;;5.80;4.25;;;;;;;;;;5022624;28;20041;-34
2022/01/07 03:10:59;;;;;;;5.07;3.88;;;;;;;;;;5022719;28;20078;-35
2022/01/07 03:13:25;;;;;;;4.65;3.78;;;;;;;;;;5022713;28;20025;-30
2022/01/07 03:15:51;;;;;;;5.60;4.03;;;;;;;;;;5022674;28;20478;-35
2022/01/07 03:18:17;;;;;;;4.85;3.60;;;;;;;;;;5021960;28;20127;-31
2022/01/07 03:20:42;;;;;;;4.70;3.75;;;;;;;;;;5022602;28;20041;-32
2022/01/07 03:23:09;;;;;;;3.85;3.45;;;;;;;;;;5022668;28;20033;-31
2022/01/07 03:25:35;;;;;;;5.03;3.70;;;;;;;;;;5022491;28;20029;-30
2022/01/07 03:28:01;;;;;;;5.07;3.88;;;;;;;;;;5023101;28;20112;-30
2022/01/07 03:30:26;;;;;;;3.95;3.22;;;;;;;;;;5021998;28;20034;-36
2022/01/07 03:32:52;;;;;;;4.15;3.38;;;;;;;;;;5022169;28;20037;-33
2022/01/07 03:35:17;;;;;;;5.50;3.83;;;;;;;;;;5022584;28;20025;-30
2022/01/07 03:37:43;;;;;;;4.72;3.53;;;;;;;;;;5040461;28;20499;-32
2022/01/07 03:40:10;;;;;;;7.07;3.42;;;;;;;;;;5041718;28;20083;-35
2022/01/07 03:42:35;;;;;;;5.20;3.50;;;;;;;;;;5040103;28;20029;-32
2022/01/07 03:45:01;;;;;;;4.72;3.67;;;;;;;;;;5022198;28;20806;-34
2022/01/07 03:47:27;;;;;;;4.15;3.58;;;;;;;;;;5025878;28;20061;-32
2022/01/07 03:49:52;;;;;;;3.78;3.38;;;;;;;;;;5026551;28;20085;-35
2022/01/07 03:52:18;;;;;;;4.85;3.40;;;;;;;;;;5026270;28;20435;-31
2022/01/07 03:54:44;;;;;;;4.30;3.50;;;;;;;;;;5026018;28;20030;-29
2022/01/07 03:57:09;;;;;;;4.60;3.40;;;;;;;;;;5025213;28;20513;-32
2022/01/07 03:59:35;;;;;;;4.70;3.38;;;;;;;;;;5025230;28;20037;-29
2022/01/07 04:02:00;;;;;;;5.60;3.40;;;;;;;;;;5026046;28;20036;-35
2022/01/07 04:04:26;;;;;;;9.80;3.53;;;;;;;;;;5025962;28;20049;-35
2022/01/07 04:06:51;;;;;;;8.15;3.75;;;;;;;;;;5025766;28;20040;-34
2022/01/07 04:09:17;;;;;;;8.32;3.55;;;;;;;;;;5025915;28;20052;-28
2022/01/07 04:11:42;;;;;;;6.10;3.33;;;;;;;;;;5025912;28;20084;-29
2022/01/07 04:14:08;;;;;;;9.80;3.80;;;;;;;;;;5026320;28;20025;-33
2022/01/07 04:16:33;;;;;;;6.22;3.80;;;;;;;;;;5025360;28;20399;-35
2022/01/07 04:18:59;;;;;;;8.13;3.63;;;;;;;;;;5025116;28;20099;-31
2022/01/07 04:21:24;;;;;;;9.50;3.90;;;;;;;;;;5025518;28;20040;-34
2022/01/07 04:23:50;;;;;;;10.63;3.97;;;;;;;;;;5025288;28;20033;-33
2022/01/07 04:26:15;;;;;;;23.63;5.10;;;;;;;;;;5025964;28;20027;-32
2022/01/07 04:28:41;;;;;;;9.35;4.65;;;;;;;;;;5025271;28;20435;-31
2022/01/07 04:31:06;;;;;;;16.98;5.18;;;;;;;;;;5025307;28;20053;-33
2022/01/07 04:33:34;;;;;;;8.48;4.88;;;;;;;;;;5025541;28;20041;-34
2022/01/07 04:35:59;;;;;;;15.45;5.35;;;;;;;;;;5025073;28;20060;-34
2022/01/07 04:38:25;;;;;;;12.43;5.43;;;;;;;;;;5036169;28;20496;-35
2022/01/07 04:40:51;;;;;;;11.05;5.40;;;;;;;;;;5033617;28;20076;-33
2022/01/07 04:43:16;;;;;;;12.27;5.93;;;;;;;;;;5032923;28;20116;-31
2022/01/07 04:45:42;;;;;;;8.70;5.55;;;;;;;;;;5033482;28;20034;-29
2022/01/07 04:48:08;;;;;;;10.48;6.68;;;;;;;;;;5033503;28;20690;-31
2022/01/07 04:50:33;;;;;;;9.10;5.78;;;;;;;;;;5032350;28;20036;-31
2022/01/07 04:52:59;;;;;;;8.77;5.90;;;;;;;;;;5033161;28;20041;-37
2022/01/07 04:55:29;;;;;;;10.63;6.50;;;;;;;;;;5034190;28;20032;-32
2022/01/07 04:57:55;;;;;;;7.80;5.82;;;;;;;;;;5034639;28;20033;-33
2022/01/07 05:00:21;;;;;;;10.77;6.55;;;;;;;;;;5035777;28;20547;-32
2022/01/07 05:02:47;;;;;;;9.13;6.15;;;;;;;;;;5035681;28;20029;-34
2022/01/07 05:05:12;;;;;;;11.05;6.60;;;;;;;;;;5035365;28;20103;-32
2022/01/07 05:07:38;;;;;;;12.05;6.90;;;;;;;;;;5032341;28;20031;-33
2022/01/07 05:10:09;;;;;;;7.35;5.63;;;;;;;;;;5031935;28;20232;-34
2022/01/07 05:12:34;;;;;;;9.18;6.00;;;;;;;;;;5034864;28;20037;-33
2022/01/07 05:15:00;;;;;;;9.68;6.28;;;;;;;;;;5035803;28;20419;-32
2022/01/07 05:17:25;;;;;;;7.65;5.18;;;;;;;;;;5035311;28;20040;-36
2022/01/07 05:19:51;;;;;;;10.23;5.82;;;;;;;;;;5034965;28;20032;-33
2022/01/07 05:22:16;;;;;;;7.88;5.25;;;;;;;;;;5032234;28;20106;-31
2022/01/07 05:24:42;;;;;;;14.52;5.38;;;;;;;;;;5033023;28;20036;-29
2022/01/07 05:27:07;;;;;;;9.30;5.55;;;;;;;;;;5028954;28;20680;-30
2022/01/07 05:29:35;;;;;;;10.55;4.75;;;;;;;;;;5024176;28;20120;-32
2022/01/07 05:32:04;;;;;;;7.60;4.75;;;;;;;;;;5032225;28;20029;-32
2022/01/07 05:34:32;;;;;;;8.40;4.90;;;;;;;;;;5031841;28;20127;-37
2022/01/07 05:36:58;;;;;;;10.70;5.35;;;;;;;;;;5023951;28;20057;-31
2022/01/07 05:39:24;;;;;;;15.02;4.90;;;;;;;;;;5023862;28;20041;-33
2022/01/07 05:41:50;;;;;;;17.13;4.75;;;;;;;;;;5023808;28;20088;-32
2022/01/07 05:44:15;;;;;;;7.97;4.82;;;;;;;;;;5023703;28;20037;-31
2022/01/07 05:46:41;;;;;;;12.20;4.50;;;;;;;;;;5023744;28;20029;-33
2022/01/07 05:49:06;;;;;;;10.02;4.57;;;;;;;;;;5022205;28;20029;-37
2022/01/07 05:51:32;;;;;;;14.23;5.22;;;;;;;;;;5023920;28;20021;-30
2022/01/07 05:53:58;;;;;;;7.05;5.22;;;;;;;;;;5024212;28;20113;-34
2022/01/07 05:56:23;;;;;;;10.88;4.85;;;;;;;;;;5042735;28;20021;-30
2022/01/07 05:58:49;;;;;;;12.80;5.10;;;;;;;;;;5043725;28;20522;-37
2022/01/07 06:01:14;;;;;;;9.07;5.10;;;;;;;;;;5043807;28;20041;-33
2022/01/07 06:03:40;;;;;;;8.85;4.68;;;;;;;;;;5038505;28;20025;-31
2022/01/07 06:06:06;;;;;;;5.65;4.47;;;;;;;;;;5023752;28;20498;-34
2022/01/07 06:08:32;;;;;;;9.60;4.97;;;;;;;;;;5022774;28;20041;-30
2022/01/07 06:10:57;;;;;;;7.10;4.57;;;;;;;;;;5023453;28;20706;-35
2022/01/07 06:13:23;;;;;;;8.73;4.47;;;;;;;;;;5023496;28;20023;-29
2022/01/07 06:15:48;;;;;;;6.90;3.83;;;;;;;;;;5023347;28;20116;-32
2022/01/07 06:18:14;;;;;;;7.35;4.47;;;;;;;;;;5023211;28;20112;-35
2022/01/07 06:20:39;;;;;;;6.38;4.82;;;;;;;;;;5023213;28;20483;-30
2022/01/07 06:23:07;;;;;;;4.80;3.90;;;;;;;;;;5023502;28;20036;-29
2022/01/07 06:25:32;;;;;;;8.57;4.25;;;;;;;;;;5022054;28;20052;-28
2022/01/07 06:27:58;;;;;;;7.75;4.90;;;;;;;;;;5023375;28;20644;-33
2022/01/07 06:30:23;;;;;;;8.82;4.70;;;;;;;;;;5021630;28;20025;-33
2022/01/07 06:32:49;;;;;;;8.60;4.78;;;;;;;;;;5023011;28;20025;-30
2022/01/07 06:35:14;;;;;;;6.32;4.20;;;;;;;;;;5023260;28;20045;-29
2022/01/07 06:37:40;;;;;;;7.95;4.45;;;;;;;;;;5022903;28;20045;-33
2022/01/07 06:40:06;;;;;;;7.60;5.07;;;;;;;;;;5023556;28;20166;-33
2022/01/07 06:42:32;;;;;;;9.65;4.28;;;;;;;;;;5042761;28;20029;-33
2022/01/07 06:44:57;;;;;;;14.50;5.13;;;;;;;;;;5042747;28;20124;-30
2022/01/07 06:47:23;;;;;;;6.88;4.25;;;;;;;;;;5042520;28;20497;-34
2022/01/07 06:49:49;;;;;;;9.55;4.53;;;;;;;;;;5042943;28;20106;-34
2022/01/07 06:52:14;;;;;;;11.18;4.72;;;;;;;;;;5043030;28;20138;-30
2022/01/07 06:54:40;;;;;;;8.90;4.68;;;;;;;;;;5042660;28;20647;-35
2022/01/07 06:57:05;;;;;;;8.88;4.53;;;;;;;;;;5042939;28;20029;-29
2022/01/07 06:59:31;;;;;;;13.27;5.10;;;;;;;;;;5042936;28;20418;-32
2022/01/07 07:01:56;;;;;;;11.95;5.10;;;;;;;;;;5041318;28;20025;-34
2022/01/07 07:04:23;;;;;;;6.53;4.07;;;;;;;;;;5042867;28;20437;-33
2022/01/07 07:06:49;;;;;;;7.97;4.78;;;;;;;;;;5042956;28;20036;-29
2022/01/07 07:09:16;;;;;;;12.63;5.90;;;;;;;;;;5036996;28;20485;-31
2022/01/07 07:11:43;;;;;;;7.47;5.22;;;;;;;;;;5027484;28;20510;-29
2022/01/07 07:14:09;;;;;;;13.73;5.32;;;;;;;;;;5025535;28;20044;-32
2022/01/07 07:16:34;;;;;;;9.35;5.20;;;;;;;;;;5023238;28;20029;-28
2022/01/07 07:19:01;;;;;;;7.22;5.78;;;;;;;;;;5024516;28;20831;-28
2022/01/07 07:21:27;;;;;;;9.85;7.13;;;;;;;;;;5025352;28;20029;-31
2022/01/07 07:23:53;;;;;;;10.57;7.43;;;;;;;;;;5029103;28;20045;-30
2022/01/07 07:26:18;;;;;;;13.50;7.82;;;;;;;;;;5028847;28;20033;-30
2022/01/07 07:28:45;;;;;;;13.00;8.48;;;;;;;;;;5028438;28;20033;-29
2022/01/07 07:31:13;;;;;;;11.40;8.40;;;;;;;;;;5028402;28;20380;-33
2022/01/07 07:36:30;;;;;;;13.85;8.77;;;;;;;;;;5028478;28;20564;-32
2022/01/07 07:39:01;;;;;;;14.15;7.70;;;;;;;;;;5029032;28;20111;-32
2022/01/07 07:41:27;;;;;;;10.15;7.60;;;;;;;;;;5028515;28;20033;-32
2022/01/07 07:43:53;;;;;;;20.00;8.65;;;;;;;;;;5028483;28;20108;-34
2022/01/07 07:46:19;;;;;;;44.00;11.18;;;;;;;;;;5033276;28;20170;-30
2022/01/07 07:48:46;;;;;;;23.52;10.82;;;;;;;;;;5030589;28;20037;-29
2022/01/07 07:51:11;;;;;;;24.40;9.30;;;;;;;;;;5028694;28;20754;-32
2022/01/07 07:53:37;;;;;;;20.60;10.10;;;;;;;;;;5028567;28;20063;-30
2022/01/07 07:56:03;;;;;;;18.60;9.32;;;;;;;;;;5039772;28;20032;-33
2022/01/07 07:58:29;;;;;;;17.45;8.95;;;;;;;;;;5048269;28;20033;-29
2022/01/07 08:00:54;;;;;;;77.97;11.98;;;;;;;;;;5048519;28;20037;-35
2022/01/07 08:03:21;;;;;;;44.58;9.80;;;;;;;;;;5048928;28;20487;-32
2022/01/07 08:05:46;;;;;;;71.40;14.82;;;;;;;;;;5048630;28;20059;-29
2022/01/07 08:08:12;;;;;;;87.68;16.05;;;;;;;;;;5048436;28;20526;-33
2022/01/07 08:10:45;;;;;;;88.00;14.82;;;;;;;;;;5048321;28;20029;-35
2022/01/07 08:18:22;;;;;;;14.57;7.63;;;;;;;;;;5048400;28;20040;-33
2022/01/07 08:20:48;;;;;;;17.67;7.82;;;;;;;;;;5048365;28;20032;-30
2022/01/07 08:23:13;;;;;;;13.95;8.38;;;;;;;;;;5048482;28;20017;-32
2022/01/07 08:25:39;;;;;;;16.25;7.75;;;;;;;;;;5046977;28;20041;-33
2022/01/07 08:28:05;;;;;;;23.23;8.43;;;;;;;;;;5048876;28;20032;-33
2022/01/07 08:30:58;;;;;;;20.88;9.85;;;;;;;;;;5047159;28;20044;-32
2022/01/07 08:36:07;;;;;;;18.13;10.40;;;;;;;;;;5045275;28;20040;-34
2022/01/07 08:38:32;;;;;;;19.55;9.93;;;;;;;;;;5045121;28;20029;-32
2022/01/07 08:40:58;;;;;;;17.90;9.40;;;;;;;;;;5041675;28;20040;-37
2022/01/07 08:43:24;;;;;;;18.70;9.63;;;;;;;;;;5033783;28;20027;-32
2022/01/07 08:45:49;;;;;;;17.50;9.18;;;;;;;;;;5041469;28;20033;-37
2022/01/07 08:48:15;;;;;;;16.90;8.85;;;;;;;;;;5043537;28;20610;-31
2022/01/07 08:50:40;;;;;;;13.43;9.15;;;;;;;;;;5042531;28;20024;-31
2022/01/07 08:53:06;;;;;;;13.38;9.00;;;;;;;;;;5041128;28;20033;-34
2022/01/07 08:55:31;;;;;;;12.20;8.40;;;;;;;;;;5044290;28;20033;-34
2022/01/07 08:57:57;;;;;;;12.30;8.43;;;;;;;;;;5041381;28;20051;-31
2022/01/07 09:00:24;;;;;;;9.95;7.78;;;;;;;;;;5044628;28;20040;-34
2022/01/07 09:02:49;;;;;;;11.20;8.25;;;;;;;;;;5044551;28;20039;-34
2022/01/07 09:05:15;;;;;;;10.15;7.35;;;;;;;;;;5044280;28;20124;-34
2022/01/07 09:07:41;;;;;;;10.75;7.88;;;;;;;;;;5044657;28;20021;-29
2022/01/07 09:10:07;;;;;;;11.32;8.20;;;;;;;;;;5044039;28;20040;-34
2022/01/07 09:12:32;;;;;;;8.68;7.13;;;;;;;;;;5043843;28;20065;-33
2022/01/07 09:14:58;;;;;;;12.57;7.80;;;;;;;;;;5043885;28;20025;-35
2022/01/07 09:17:23;;;;;;;10.73;8.02;;;;;;;;;;5044509;28;20037;-36
2022/01/07 09:19:49;;;;;;;10.80;7.72;;;;;;;;;;5044175;28;20036;-33
2022/01/07 09:22:15;;;;;;;11.98;7.82;;;;;;;;;;5043950;28;20036;-32
2022/01/07 09:24:40;;;;;;;10.35;7.72;;;;;;;;;;5043951;28;20029;-33
2022/01/07 09:27:06;;;;;;;9.88;7.32;;;;;;;;;;5044450;28;20029;-33
2022/01/07 09:29:31;;;;;;;11.02;7.47;;;;;;;;;;5043798;28;20880;-35
2022/01/07 09:31:57;;;;;;;10.85;7.38;;;;;;;;;;5043547;28;20037;-33
2022/01/07 09:34:22;;;;;;;10.50;7.57;;;;;;;;;;5044238;28;20090;-36
2022/01/07 09:36:48;;;;;;;10.00;6.90;;;;;;;;;;5043661;28;20048;-32
2022/01/07 09:39:13;;;;;;;10.52;7.00;;;;;;;;;;5043500;28;20717;-34
2022/01/07 09:41:39;;;;;;;10.15;7.53;;;;;;;;;;5038380;28;20051;-35
2022/01/07 09:44:11;;;;;;;8.25;6.70;;;;;;;;;;5042807;28;20144;-32
2022/01/07 09:46:36;;;;;;;11.07;6.53;;;;;;;;;;5043649;28;20581;-35
2022/01/07 09:49:04;;;;;;;8.98;6.43;;;;;;;;;;5043816;28;20033;-30
2022/01/07 09:51:29;;;;;;;10.93;7.05;;;;;;;;;;5043769;28;20033;-33
2022/01/07 09:53:55;;;;;;;9.02;6.78;;;;;;;;;;5043781;28;20465;-31
2022/01/07 09:56:20;;;;;;;12.63;7.18;;;;;;;;;;5043214;28;20399;-34
2022/01/07 09:58:46;;;;;;;8.20;6.32;;;;;;;;;;5043164;28;20415;-32
2022/01/07 10:01:16;;;;;;;9.18;7.05;;;;;;;;;;5043462;28;20115;-31
2022/01/07 10:03:43;;;;;;;11.35;7.22;;;;;;;;;;5043696;28;20392;-31
2022/01/07 10:06:26;;;;;;;17.10;6.97;;;;;;;;;;5043661;28;20024;-33
2022/01/07 10:09:10;;;;;;;10.52;7.30;;;;;;;;;;5043467;28;20057;-29
2022/01/07 10:11:36;;;;;;;13.10;6.82;;;;;;;;;;5043193;28;20029;-34
2022/01/07 10:14:19;;;;;;;10.48;7.28;;;;;;;;;;5043499;28;20032;-34
2022/01/07 10:16:54;;;;;;;10.00;6.80;;;;;;;;;;5042421;28;20043;-28
2022/01/07 10:19:33;;;;;;;14.05;7.88;;;;;;;;;;5042956;28;20040;-36
2022/01/07 10:22:07;;;;;;;8.93;6.85;;;;;;;;;;5041847;28;20083;-32
2022/01/07 10:24:51;;;;;;;9.73;6.80;;;;;;;;;;5043449;28;20036;-31
2022/01/07 10:27:16;;;;;;;9.82;7.38;;;;;;;;;;5040463;28;20033;-32
2022/01/07 10:29:43;;;;;;;8.68;6.82;;;;;;;;;;5042946;28;20037;-29
2022/01/07 10:32:21;;;;;;;10.73;6.30;;;;;;;;;;5042644;28;20053;-32
2022/01/07 10:35:13;;;;;;;14.90;7.13;;;;;;;;;;5043114;28;20051;-31
2022/01/07 10:38:05;;;;;;;8.30;6.85;;;;;;;;;;5042887;28;20040;-31
2022/01/07 10:40:37;;;;;;;10.23;7.45;;;;;;;;;;5041300;28;20040;-33
2022/01/07 10:43:22;;;;;;;13.60;8.18;;;;;;;;;;5042509;28;20600;-30
2022/01/07 10:45:54;;;;;;;9.02;7.20;;;;;;;;;;5042820;28;20629;-31
2022/01/07 10:48:22;;;;;;;9.65;6.85;;;;;;;;;;5042542;28;20029;-30
2022/01/07 10:50:49;;;;;;;9.07;6.97;;;;;;;;;;5042741;28;20133;-34
2022/01/07 10:53:16;;;;;;;7.95;6.47;;;;;;;;;;5043128;28;20163;-31
2022/01/07 10:56:00;;;;;;;10.30;6.45;;;;;;;;;;5041493;28;20075;-28
2022/01/07 10:58:26;;;;;;;7.50;6.30;;;;;;;;;;5041871;28;20033;-32
2022/01/07 11:00:51;;;;;;;7.40;6.05;;;;;;;;;;5042083;28;20068;-35
2022/01/07 11:03:17;;;;;;;7.57;5.45;;;;;;;;;;5041947;28;20573;-32
2022/01/07 11:05:43;;;;;;;8.77;6.00;;;;;;;;;;5042162;28;20033;-37
2022/01/07 11:08:08;;;;;;;9.35;6.95;;;;;;;;;;5040813;28;20045;-37
2022/01/07 11:10:34;;;;;;;7.38;5.93;;;;;;;;;;5041676;28;20029;-34
2022/01/07 11:13:00;;;;;;;7.30;5.93;;;;;;;;;;5041369;28;20124;-31
2022/01/07 11:15:26;;;;;;;6.18;5.13;;;;;;;;;;5041726;28;20041;-31
2022/01/07 11:17:51;;;;;;;7.93;5.72;;;;;;;;;;5041359;28;20522;-30
2022/01/07 11:20:20;;;;;;;8.40;5.50;;;;;;;;;;5041381;28;20036;-34
2022/01/07 11:22:49;;;;;;;7.28;5.40;;;;;;;;;;5024265;28;20217;-29
2022/01/07 11:25:15;;;;;;;8.07;5.60;;;;;;;;;;5040673;28;20056;-37
2022/01/07 11:27:51;;;;;;;7.43;5.35;;;;;;;;;;5041813;28;20079;-34
2022/01/07 11:30:23;;;;;;;8.18;6.10;;;;;;;;;;5041867;28;20036;-31
2022/01/07 11:32:49;;;;;;;7.32;5.25;;;;;;;;;;5042353;28;20226;-36
2022/01/07 11:35:35;;;;;;;6.03;5.10;;;;;;;;;;5041955;28;20133;-33
2022/01/07 11:38:01;;;;;;;7.03;5.40;;;;;;;;;;5042177;28;20052;-32
2022/01/07 11:40:29;;;;;;;6.82;5.25;;;;;;;;;;5042132;28;20394;-35
2022/01/07 11:42:59;;;;;;;7.00;5.35;;;;;;;;;;5042723;28;20033;-34
2022/01/07 11:45:31;;;;;;;5.55;4.65;;;;;;;;;;5042067;28;20116;-33
2022/01/07 11:47:58;;;;;;;6.50;5.03;;;;;;;;;;5041919;28;20041;-34
2022/01/07 11:50:24;;;;;;;5.78;4.68;;;;;;;;;;5041924;28;20116;-32
2022/01/07 11:53:02;;;;;;;7.53;5.38;;;;;;;;;;5042526;28;20108;-32
2022/01/07 11:55:32;;;;;;;8.13;5.45;;;;;;;;;;5041850;28;20025;-38
2022/01/07 11:58:10;;;;;;;6.18;4.82;;;;;;;;;;5041868;28;20067;-32
2022/01/07 12:00:48;;;;;;;7.10;5.15;;;;;;;;;;5041936;28;20040;-34
2022/01/07 12:03:38;;;;;;;6.38;5.00;;;;;;;;;;5042131;28;20044;-33
2022/01/07 12:06:24;;;;;;;6.82;5.25;;;;;;;;;;5055228;28;20033;-32
2022/01/07 12:09:21;;;;;;;5.78;4.80;;;;;;;;;;5045565;28;20137;-33
2022/01/07 12:11:58;;;;;;;8.45;5.30;;;;;;;;;;5045480;28;20041;-31
2022/01/07 12:14:35;;;;;;;7.40;5.57;;;;;;;;;;5044393;28;20025;-33
2022/01/07 12:17:01;;;;;;;7.25;5.70;;;;;;;;;;5044774;28;20037;-33
2022/01/07 12:19:49;;;;;;;7.53;5.60;;;;;;;;;;5045754;28;20055;-30
2022/01/07 12:22:18;;;;;;;6.32;5.05;;;;;;;;;;5043736;28;20033;-37
2022/01/07 12:24:44;;;;;;;8.50;5.80;;;;;;;;;;5044973;28;20029;-35
2022/01/07 12:27:25;;;;;;;7.43;5.65;;;;;;;;;;5045562;28;20028;-33
2022/01/07 12:29:52;;;;;;;6.57;5.55;;;;;;;;;;5045258;28;20040;-35
2022/01/07 12:32:18;;;;;;;6.35;5.28;;;;;;;;;;5044554;28;20033;-31
2022/01/07 12:34:50;;;;;;;7.82;6.03;;;;;;;;;;5045472;28;20115;-32
2022/01/07 12:37:17;;;;;;;6.65;5.65;;;;;;;;;;5045136;28;20106;-36
2022/01/07 12:39:54;;;;;;;9.00;5.75;;;;;;;;;;5045222;28;20036;-34
2022/01/07 12:42:19;;;;;;;14.80;5.63;;;;;;;;;;5044879;28;20048;-33
2022/01/07 12:44:52;;;;;;;8.45;5.85;;;;;;;;;;5043050;28;20033;-31
2022/01/07 12:47:18;;;;;;;8.77;5.95;;;;;;;;;;5045001;28;20085;-31
2022/01/07 12:49:51;;;;;;;13.13;6.13;;;;;;;;;;5044838;28;20037;-30
2022/01/07 12:52:19;;;;;;;9.30;6.05;;;;;;;;;;5044710;28;20082;-30
2022/01/07 12:54:56;;;;;;;9.40;5.78;;;;;;;;;;5044998;28;20062;-31
2022/01/07 12:57:25;;;;;;;8.25;5.55;;;;;;;;;;5044516;28;20032;-35
2022/01/07 13:00:06;;;;;;;10.43;6.10;;;;;;;;;;5044662;28;20029;-33
2022/01/07 13:02:32;;;;;;;11.13;5.85;;;;;;;;;;5044435;28;20111;-35
2022/01/07 13:05:22;;;;;;;9.65;6.20;;;;;;;;;;5044566;28;20762;-35
2022/01/07 13:07:48;;;;;;;10.48;6.70;;;;;;;;;;5044322;28;20044;-33
2022/01/07 13:10:28;;;;;;;10.85;6.45;;;;;;;;;;5044655;28;20548;-32
2022/01/07 13:12:58;;;;;;;9.10;6.60;;;;;;;;;;5044658;28;20499;-31
2022/01/07 13:15:40;;;;;;;9.02;5.95;;;;;;;;;;5044220;28;20025;-32
2022/01/07 13:18:28;;;;;;;9.40;6.25;;;;;;;;;;5043714;28;20809;-33
2022/01/07 13:20:56;;;;;;;10.52;6.05;;;;;;;;;;5044290;28;20036;-30
2022/01/07 13:23:24;;;;;;;8.73;5.97;;;;;;;;;;5044359;28;20499;-30
2022/01/07 13:25:51;;;;;;;9.80;6.18;;;;;;;;;;5042714;28;20021;-33
2022/01/07 13:28:28;;;;;;;10.93;6.72;;;;;;;;;;5042671;28;20100;-33
2022/01/07 13:30:53;;;;;;;10.15;6.38;;;;;;;;;;5042714;28;20029;-33
2022/01/07 13:33:19;;;;;;;11.07;6.10;;;;;;;;;;5042903;28;20377;-30
2022/01/07 13:35:45;;;;;;;9.02;6.80;;;;;;;;;;5025881;28;20500;-33
2022/01/07 13:38:15;;;;;;;11.45;6.78;;;;;;;;;;5025152;28;20070;-37
2022/01/07 13:40:41;;;;;;;8.77;6.53;;;;;;;;;;5043904;28;20048;-30
2022/01/07 13:43:11;;;;;;;13.57;7.40;;;;;;;;;;5044054;28;20191;-32
2022/01/07 13:45:37;;;;;;;13.23;6.80;;;;;;;;;;5043755;28;20028;-35
2022/01/07 13:48:05;;;;;;;10.88;7.32;;;;;;;;;;5043756;28;20037;-35
2022/01/07 13:50:32;;;;;;;9.80;6.75;;;;;;;;;;5043874;28;20610;-34
2022/01/07 13:52:57;;;;;;;13.25;7.13;;;;;;;;;;5043966;28;20646;-34
2022/01/07 13:55:30;;;;;;;12.35;6.85;;;;;;;;;;5042372;28;20040;-31
2022/01/07 13:58:10;;;;;;;9.10;5.97;;;;;;;;;;5043820;28;20041;-34
2022/01/07 14:00:37;;;;;;;8.65;6.07;;;;;;;;;;5043697;28;20064;-34
2022/01/07 14:03:03;;;;;;;9.77;7.18;;;;;;;;;;5043479;28;20017;-33
2022/01/07 14:05:28;;;;;;;10.35;6.80;;;;;;;;;;5043618;28;20028;-35
2022/01/07 14:07:54;;;;;;;9.00;6.13;;;;;;;;;;5042814;28;20041;-33
2022/01/07 14:10:31;;;;;;;9.55;6.75;;;;;;;;;;5043273;28;20021;-33
2022/01/07 14:13:07;;;;;;;8.88;6.55;;;;;;;;;;5042836;28;20036;-36
2022/01/07 14:15:42;;;;;;;9.75;6.72;;;;;;;;;;5043538;28;20029;-31
2022/01/07 14:18:14;;;;;;;10.50;7.00;;;;;;;;;;5043258;28;20040;-32
2022/01/07 14:20:45;;;;;;;8.95;6.35;;;;;;;;;;5043327;28;20029;-36
2022/01/07 14:23:21;;;;;;;8.95;6.55;;;;;;;;;;5043202;28;20029;-32
2022/01/07 14:25:48;;;;;;;9.18;6.30;;;;;;;;;;5041773;28;20067;-35
2022/01/07 14:28:13;;;;;;;7.32;5.80;;;;;;;;;;5043176;28;20036;-31
2022/01/07 14:30:42;;;;;;;7.68;5.88;;;;;;;;;;5042312;28;20029;-30
2022/01/07 14:33:08;;;;;;;8.55;6.38;;;;;;;;;;5043229;28;20029;-30
2022/01/07 14:35:33;;;;;;;9.88;6.13;;;;;;;;;;5042747;28;20055;-30
2022/01/07 14:37:59;;;;;;;9.23;6.88;;;;;;;;;;5042561;28;20764;-34
2022/01/07 14:40:25;;;;;;;8.82;6.20;;;;;;;;;;5042281;28;20090;-30
2022/01/07 14:42:50;;;;;;;9.98;6.85;;;;;;;;;;5042764;28;20033;-33
2022/01/07 14:45:17;;;;;;;11.98;7.22;;;;;;;;;;5042960;28;20024;-35
2022/01/07 14:47:43;;;;;;;10.60;7.80;;;;;;;;;;5042878;28;20115;-32
2022/01/07 14:50:10;;;;;;;10.73;7.20;;;;;;;;;;5042768;28;20025;-29
2022/01/07 14:52:35;;;;;;;11.77;8.02;;;;;;;;;;5042234;28;20094;-32